createdAt,value
2018-06-16T00:01:35.545Z,99814.70
2018-06-16T00:04:04.088Z,99810.95
2018-06-16T00:06:32.647Z,99816.89
2018-06-16T00:09:01.201Z,99818.55
2018-06-16T00:11:29.799Z,99818.84
2018-06-16T00:13:58.383Z,99819.46
2018-06-16T00:16:27.023Z,99826.67
2018-06-16T00:18:55.625Z,99824.23
2018-06-16T00:21:24.271Z,99821.70
2018-06-16T00:23:52.876Z,99821.31
2018-06-16T00:26:21.334Z,99825.08
2018-06-16T00:28:49.966Z,99823.81
2018-06-16T00:31:18.595Z,99823.48
2018-06-16T00:33:47.212Z,99816.96
2018-06-16T00:36:15.789Z,99816.44
2018-06-16T00:38:44.350Z,99814.23
2018-06-16T00:41:13.003Z,99816.02
2018-06-16T00:43:41.523Z,99816.44
2018-06-16T00:46:10.145Z,99814.69
2018-06-16T00:48:38.695Z,99804.48
2018-06-16T00:51:07.226Z,99801.88
2018-06-16T00:53:35.811Z,99804.15
2018-06-16T00:56:04.434Z,99805.94
2018-06-16T00:58:33.076Z,99813.52
2018-06-16T01:01:01.760Z,99806.48
2018-06-16T01:03:30.301Z,99805.31
2018-06-16T01:05:58.819Z,99803.66
2018-06-16T01:08:27.431Z,99804.27
2018-06-16T01:10:56.116Z,99811.98
2018-06-16T01:13:24.684Z,99810.27
2018-06-16T01:15:53.269Z,99809.16
2018-06-16T01:18:21.910Z,99812.42
2018-06-16T01:20:50.480Z,99812.52
2018-06-16T01:23:19.015Z,99818.29
2018-06-16T01:25:47.542Z,99814.85
2018-06-16T01:28:16.028Z,99818.45
2018-06-16T01:30:44.535Z,99815.94
2018-06-16T01:33:13.034Z,99813.34
2018-06-16T01:35:41.523Z,99817.00
2018-06-16T01:38:10.236Z,99814.02
2018-06-16T01:40:38.835Z,99811.58
2018-06-16T01:43:07.519Z,99811.73
2018-06-16T01:45:36.087Z,99806.57
2018-06-16T01:48:04.792Z,99812.00
2018-06-16T01:50:33.509Z,99806.78
2018-06-16T01:53:02.062Z,99803.41
2018-06-16T01:55:30.542Z,99802.23
2018-06-16T01:57:59.060Z,99802.34
2018-06-16T02:00:27.591Z,99798.06
2018-06-16T02:02:56.150Z,99801.72
2018-06-16T02:05:24.615Z,99798.28
2018-06-16T02:07:53.264Z,99798.48
2018-06-16T02:10:21.759Z,99799.50
2018-06-16T02:12:50.447Z,99800.98
2018-06-16T02:15:19.197Z,99801.59
2018-06-16T02:17:47.721Z,99799.08
2018-06-16T02:20:16.238Z,99804.84
2018-06-16T02:22:44.693Z,99807.64
2018-06-16T02:25:13.233Z,99801.06
2018-06-16T02:27:41.700Z,99802.55
2018-06-16T02:30:10.251Z,99804.41
2018-06-16T02:32:38.844Z,99802.27
2018-06-16T02:35:07.339Z,99802.75
2018-06-16T02:37:35.834Z,99802.35
2018-06-16T02:40:04.382Z,99799.75
2018-06-16T02:42:32.841Z,99799.36
2018-06-16T02:45:01.379Z,99803.80
2018-06-16T02:47:29.902Z,99805.27
2018-06-16T02:49:58.482Z,99797.70
2018-06-16T02:52:26.962Z,99797.64
2018-06-16T02:54:55.519Z,99800.69
2018-06-16T02:57:24.083Z,99798.82
2018-06-16T02:59:52.639Z,99798.42
2018-06-16T03:02:21.191Z,99797.98
2018-06-16T03:04:49.700Z,99798.37
2018-06-16T03:07:18.427Z,99793.91
2018-06-16T03:09:47.241Z,99798.37
2018-06-16T03:12:15.737Z,99795.72
2018-06-16T03:14:44.183Z,99792.12
2018-06-16T03:17:12.702Z,99799.16
2018-06-16T03:19:41.242Z,99800.00
2018-06-16T03:22:09.858Z,99793.84
2018-06-16T03:24:38.326Z,99798.67
2018-06-16T03:27:06.905Z,99804.86
2018-06-16T03:29:35.531Z,99802.59
2018-06-16T03:32:04.919Z,99801.33
2018-06-16T03:34:33.475Z,99806.19
2018-06-16T03:37:01.965Z,99801.81
2018-06-16T03:39:30.582Z,99798.28
2018-06-16T03:41:59.052Z,99799.61
2018-06-16T03:44:27.687Z,99797.77
2018-06-16T03:46:56.160Z,99795.96
2018-06-16T03:49:24.747Z,99795.52
2018-06-16T03:51:53.244Z,99799.41
2018-06-16T03:54:21.871Z,99797.63
2018-06-16T03:56:50.443Z,99799.68
2018-06-16T03:59:19.040Z,99801.85
2018-06-16T04:01:47.608Z,99798.69
2018-06-16T04:04:16.194Z,99804.24
2018-06-16T04:06:44.709Z,99799.17
2018-06-16T04:09:13.159Z,99800.44
2018-06-16T04:11:41.708Z,99794.59
2018-06-16T04:14:10.337Z,99806.03
2018-06-16T04:16:38.938Z,99799.72
2018-06-16T04:19:07.440Z,99800.05
2018-06-16T04:21:36.039Z,99796.25
2018-06-16T04:24:04.623Z,99798.64
2018-06-16T04:26:33.256Z,99793.56
2018-06-16T04:29:01.920Z,99801.16
2018-06-16T04:31:30.611Z,99800.04
2018-06-16T04:33:59.261Z,99803.72
2018-06-16T04:36:27.856Z,99800.72
2018-06-16T04:38:56.427Z,99798.68
2018-06-16T04:41:24.987Z,99800.02
2018-06-16T04:43:53.582Z,99801.55
2018-06-16T04:46:22.145Z,99804.22
2018-06-16T04:48:50.873Z,99801.69
2018-06-16T04:51:19.403Z,99806.16
2018-06-16T04:53:48.044Z,99799.97
2018-06-16T04:56:16.599Z,99798.17
2018-06-16T04:58:45.224Z,99799.04
2018-06-16T05:01:13.766Z,99801.62
2018-06-16T05:03:42.278Z,99799.05
2018-06-16T05:06:11.146Z,99793.73
2018-06-16T05:08:39.890Z,99791.60
2018-06-16T05:11:08.675Z,99788.14
2018-06-16T05:13:37.223Z,99784.49
2018-06-16T05:16:06.542Z,99781.20
2018-06-16T05:18:35.230Z,99784.15
2018-06-16T05:21:03.897Z,99779.06
2018-06-16T05:23:32.575Z,99777.56
2018-06-16T05:26:01.274Z,99783.12
2018-06-16T05:28:29.938Z,99783.80
2018-06-16T05:30:58.578Z,99776.50
2018-06-16T05:33:27.370Z,99780.11
2018-06-16T05:35:56.075Z,99785.39
2018-06-16T05:38:24.877Z,99782.61
2018-06-16T05:40:53.687Z,99786.23
2018-06-16T05:43:22.207Z,99781.11
2018-06-16T05:45:50.934Z,99788.94
2018-06-16T05:48:19.589Z,99798.06
2018-06-16T05:50:48.480Z,99798.06
2018-06-16T05:53:17.239Z,99794.91
2018-06-16T05:55:45.975Z,99800.03
2018-06-16T05:58:14.606Z,99799.70
2018-06-16T06:00:43.325Z,99794.98
2018-06-16T06:03:11.980Z,99798.64
2018-06-16T06:05:40.598Z,99795.06
2018-06-16T06:08:09.220Z,99793.29
2018-06-16T06:10:38.022Z,99795.77
2018-06-16T06:13:06.715Z,99797.66
2018-06-16T06:15:35.625Z,99794.83
2018-06-16T06:18:04.354Z,99797.11
2018-06-16T06:20:33.002Z,99797.20
2018-06-16T06:23:02.286Z,99801.06
2018-06-16T06:25:30.817Z,99806.94
2018-06-16T06:27:59.771Z,99811.08
2018-06-16T06:30:28.429Z,99809.18
2018-06-16T06:32:57.013Z,99811.03
2018-06-16T06:35:25.482Z,99819.19
2018-06-16T06:37:54.451Z,99812.45
2018-06-16T06:40:23.827Z,99816.16
2018-06-16T06:42:52.589Z,99827.55
2018-06-16T06:45:21.213Z,99823.10
2018-06-16T06:47:49.866Z,99823.39
2018-06-16T06:50:18.859Z,99822.37
2018-06-16T06:52:47.545Z,99826.34
2018-06-16T06:55:16.246Z,99828.89
2018-06-16T06:57:45.062Z,99821.61
2018-06-16T07:00:13.706Z,99818.08
2018-06-16T07:02:42.398Z,99818.54
2018-06-16T07:05:11.380Z,99818.75
2018-06-16T07:07:40.242Z,99820.28
2018-06-16T07:10:08.952Z,99815.10
2018-06-16T07:12:37.657Z,99814.94
2018-06-16T07:15:06.421Z,99811.70
2018-06-16T07:17:35.150Z,99822.41
2018-06-16T07:20:03.905Z,99819.67
2018-06-16T07:22:32.606Z,99812.73
2018-06-16T07:25:01.202Z,99818.47
2018-06-16T07:27:29.849Z,99817.14
2018-06-16T07:29:58.471Z,99818.72
2018-06-16T07:32:31.515Z,99815.09
2018-06-16T07:35:00.110Z,99812.70
2018-06-16T07:37:28.830Z,99811.83
2018-06-16T07:39:59.366Z,99813.41
2018-06-16T07:42:28.213Z,99816.98
2018-06-16T07:44:56.828Z,99811.08
2018-06-16T07:47:25.528Z,99808.86
2018-06-16T07:49:54.220Z,99814.47
2018-06-16T07:52:23.015Z,99809.58
2018-06-16T07:54:51.725Z,99810.22
2018-06-16T07:57:20.500Z,99818.10
2018-06-16T07:59:49.165Z,99810.22
2018-06-16T08:02:17.707Z,99812.26
2018-06-16T08:04:47.341Z,99812.98
2018-06-16T08:07:16.055Z,99808.63
2018-06-16T08:12:34.156Z,99810.59
2018-06-16T08:15:09.243Z,99809.27
2018-06-16T08:17:37.933Z,99802.17
2018-06-16T08:20:15.034Z,99808.80
2018-06-16T08:22:43.779Z,99816.45
2018-06-16T08:25:14.680Z,99813.55
2018-06-16T08:27:43.207Z,99808.31
2018-06-16T08:30:11.828Z,99815.59
2018-06-16T08:32:40.361Z,99813.58
2018-06-16T08:35:09.099Z,99817.90
2018-06-16T08:37:37.775Z,99819.94
2018-06-16T08:40:06.611Z,99821.88
2018-06-16T08:42:35.341Z,99821.55
2018-06-16T08:45:03.950Z,99815.57
2018-06-16T08:47:32.564Z,99819.20
2018-06-16T08:50:01.233Z,99818.41
2018-06-16T08:52:29.906Z,99818.97
2018-06-16T08:54:58.537Z,99812.66
2018-06-16T08:57:28.901Z,99811.78
2018-06-16T08:59:57.663Z,99815.49
2018-06-16T09:02:26.307Z,99814.89
2018-06-16T09:04:56.105Z,99813.37
2018-06-16T09:07:29.369Z,99813.00
2018-06-16T09:10:01.536Z,99819.16
2018-06-16T09:12:30.411Z,99816.33
2018-06-16T09:14:59.043Z,99808.67
2018-06-16T09:17:27.719Z,99812.56
2018-06-16T09:19:56.452Z,99814.95
2018-06-16T09:22:25.201Z,99811.17
2018-06-16T09:24:54.391Z,99811.23
2018-06-16T09:27:23.329Z,99806.43
2018-06-16T09:29:51.909Z,99815.23
2018-06-16T09:32:20.615Z,99813.55
2018-06-16T09:34:49.456Z,99814.67
2018-06-16T09:37:18.140Z,99810.60
2018-06-16T09:39:46.771Z,99820.89
2018-06-16T09:42:15.646Z,99811.08
2018-06-16T09:44:45.735Z,99809.27
2018-06-16T09:47:25.183Z,99806.41
2018-06-16T09:49:53.938Z,99807.12
2018-06-16T09:52:22.752Z,99801.00
2018-06-16T09:54:51.567Z,99801.44
2018-06-16T09:57:20.243Z,99803.69
2018-06-16T09:59:48.934Z,99805.20
2018-06-16T10:02:17.693Z,99809.67
2018-06-16T10:04:46.314Z,99814.48
2018-06-16T10:07:14.895Z,99811.54
2018-06-16T10:09:43.532Z,99722.17
2018-06-16T10:12:12.214Z,99805.48
2018-06-16T10:14:41.019Z,99816.36
2018-06-16T10:17:09.692Z,99810.09
2018-06-16T10:19:38.383Z,99811.45
2018-06-16T10:22:07.092Z,99807.66
2018-06-16T10:24:35.900Z,99801.17
2018-06-16T10:27:05.430Z,99806.05
2018-06-16T10:29:34.155Z,99798.66
2018-06-16T10:32:03.005Z,99793.82
2018-06-16T10:34:31.693Z,99798.14
2018-06-16T10:37:00.736Z,99784.95
2018-06-16T10:39:29.583Z,99789.19
2018-06-16T10:41:58.429Z,99781.96
2018-06-16T10:44:27.171Z,99778.78
2018-06-16T10:46:56.155Z,99777.97
2018-06-16T10:49:24.795Z,99785.69
2018-06-16T10:51:53.500Z,99783.03
2018-06-16T10:54:22.073Z,99783.98
2018-06-16T10:56:50.670Z,99784.89
2018-06-16T10:59:19.340Z,99775.41
2018-06-16T11:01:48.036Z,99778.31
2018-06-16T11:04:16.662Z,99777.23
2018-06-16T11:06:45.482Z,99783.28
2018-06-16T11:09:14.216Z,99780.63
2018-06-16T11:11:42.791Z,99774.03
2018-06-16T11:14:11.416Z,99774.48
2018-06-16T11:16:40.060Z,99776.80
2018-06-16T11:19:08.734Z,99780.43
2018-06-16T11:21:37.610Z,99770.58
2018-06-16T11:24:06.285Z,99769.03
2018-06-16T11:26:34.854Z,99765.27
2018-06-16T11:29:03.527Z,99769.91
2018-06-16T11:31:32.243Z,99766.16
2018-06-16T11:34:00.939Z,99762.63
2018-06-16T11:36:29.729Z,99773.47
2018-06-16T11:38:58.557Z,99760.50
2018-06-16T11:41:27.176Z,99657.05
2018-06-16T11:43:55.839Z,99758.64
2018-06-16T11:46:24.482Z,99761.76
2018-06-16T11:48:53.276Z,99754.97
2018-06-16T11:51:22.015Z,99754.76
2018-06-16T11:53:50.635Z,99748.81
2018-06-16T11:56:19.399Z,99750.66
2018-06-16T11:58:48.106Z,99751.58
2018-06-16T12:01:16.840Z,99749.47
2018-06-16T12:03:45.456Z,99741.55
2018-06-16T12:06:14.190Z,99737.40
2018-06-16T12:08:42.803Z,99733.96
2018-06-16T12:11:11.522Z,99739.73
2018-06-16T12:13:40.380Z,99736.42
2018-06-16T12:16:08.979Z,99729.16
2018-06-16T12:18:37.484Z,99723.58
2018-06-16T12:21:06.036Z,99736.47
2018-06-16T12:23:34.644Z,99719.39
2018-06-16T12:26:03.367Z,99715.72
2018-06-16T12:28:31.923Z,99713.22
2018-06-16T12:31:00.533Z,99710.30
2018-06-16T12:33:29.107Z,99700.20
2018-06-16T12:35:57.864Z,99702.98
2018-06-16T12:38:26.512Z,99698.23
2018-06-16T12:40:55.358Z,99697.00
2018-06-16T12:43:24.222Z,99683.91
2018-06-16T12:45:53.319Z,99689.34
2018-06-16T12:48:22.155Z,99686.26
2018-06-16T12:50:51.022Z,99677.37
2018-06-16T12:53:19.955Z,99692.69
2018-06-16T12:55:48.757Z,99680.67
2018-06-16T12:58:17.372Z,99674.36
2018-06-16T13:00:46.117Z,99671.71
2018-06-16T13:03:14.794Z,99670.20
2018-06-16T13:05:43.644Z,99668.49
2018-06-16T13:08:12.228Z,99665.87
2018-06-16T13:10:40.979Z,99662.94
2018-06-16T13:13:09.704Z,99661.84
2018-06-16T13:15:38.655Z,99672.75
2018-06-16T13:18:07.363Z,99673.95
2018-06-16T13:20:36.008Z,99680.50
2018-06-16T13:23:04.691Z,99678.23
2018-06-16T13:25:33.548Z,99677.45
2018-06-16T13:28:02.480Z,99677.88
2018-06-16T13:30:31.254Z,99676.80
2018-06-16T13:33:00.310Z,99673.90
2018-06-16T13:35:28.905Z,99674.95
2018-06-16T13:37:57.608Z,99686.06
2018-06-16T13:40:26.224Z,99682.75
2018-06-16T13:42:54.816Z,99683.77
2018-06-16T13:45:23.990Z,99683.52
2018-06-16T13:47:52.726Z,99684.12
2018-06-16T13:50:25.089Z,99682.97
2018-06-16T13:52:53.714Z,99677.15
2018-06-16T13:55:22.456Z,99671.20
2018-06-16T13:57:51.111Z,99684.34
2018-06-16T14:00:19.782Z,99675.42
2018-06-16T14:02:49.215Z,99674.11
2018-06-16T14:05:18.113Z,99693.33
2018-06-16T14:07:46.783Z,99676.22
2018-06-16T14:10:15.424Z,99671.94
2018-06-16T14:12:43.987Z,99664.58
2018-06-16T14:15:13.175Z,99662.88
2018-06-16T14:17:41.891Z,99662.29
2018-06-16T14:20:10.929Z,99661.48
2018-06-16T14:22:39.876Z,99589.91
2018-06-16T14:25:08.580Z,99658.47
2018-06-16T14:27:37.149Z,99651.01
2018-06-16T14:30:05.730Z,99653.42
2018-06-16T14:32:34.414Z,99653.42
2018-06-16T14:35:02.999Z,99647.55
2018-06-16T14:37:31.592Z,99644.63
2018-06-16T14:40:00.284Z,99643.27
2018-06-16T14:42:28.953Z,99636.36
2018-06-16T14:44:57.991Z,99640.26
2018-06-16T14:47:27.512Z,99638.48
2018-06-16T14:49:56.279Z,99625.72
2018-06-16T14:52:24.940Z,99632.77
2018-06-16T14:54:53.821Z,99628.02
2018-06-16T14:57:22.660Z,99624.66
2018-06-16T14:59:51.499Z,99621.24
2018-06-16T15:02:20.355Z,99620.58
2018-06-16T15:04:49.094Z,99609.25
2018-06-16T15:07:17.636Z,99618.11
2018-06-16T15:09:46.270Z,99617.55
2018-06-16T15:12:15.259Z,99616.03
2018-06-16T15:14:43.872Z,99615.73
2018-06-16T15:17:12.654Z,99618.91
2018-06-16T15:19:41.308Z,99611.75
2018-06-16T15:22:09.956Z,99610.22
2018-06-16T15:24:38.640Z,99606.99
2018-06-16T15:27:07.428Z,99609.17
2018-06-16T15:29:36.192Z,99609.16
2018-06-16T15:32:04.862Z,99607.53
2018-06-16T15:34:33.633Z,99604.06
2018-06-16T15:37:02.531Z,99597.63
2018-06-16T15:39:31.292Z,99599.56
2018-06-16T15:42:00.035Z,99598.56
2018-06-16T15:44:28.698Z,99596.64
2018-06-16T15:46:57.489Z,99601.57
2018-06-16T15:49:26.195Z,99602.62
2018-06-16T15:51:54.999Z,99594.73
2018-06-16T15:54:23.937Z,99589.66
2018-06-16T15:56:52.670Z,99589.58
2018-06-16T15:59:21.473Z,99585.89
2018-06-16T16:01:50.339Z,99588.76
2018-06-16T16:04:19.164Z,99585.21
2018-06-16T16:06:47.879Z,99593.61
2018-06-16T16:09:16.510Z,99586.69
2018-06-16T16:11:45.149Z,99588.67
2018-06-16T16:14:13.847Z,99585.91
2018-06-16T16:16:42.501Z,99592.20
2018-06-16T16:19:11.106Z,99588.83
2018-06-16T16:21:39.906Z,99590.69
2018-06-16T16:24:08.893Z,99588.74
2018-06-16T16:26:37.543Z,99593.32
2018-06-16T16:29:06.276Z,99594.48
2018-06-16T16:31:34.983Z,99594.05
2018-06-16T16:34:03.591Z,99597.50
2018-06-16T16:36:32.220Z,99597.64
2018-06-16T16:39:00.818Z,99600.71
2018-06-16T16:41:29.421Z,99608.86
2018-06-16T16:43:58.062Z,99612.65
2018-06-16T16:46:26.688Z,99625.89
2018-06-16T16:48:55.371Z,99643.23
2018-06-16T16:51:24.076Z,99665.23
2018-06-16T16:53:52.784Z,99678.55
2018-06-16T16:56:21.429Z,99679.80
2018-06-16T16:58:50.028Z,99684.02
2018-06-16T17:01:18.556Z,99682.55
2018-06-16T17:03:47.163Z,99677.84
2018-06-16T17:06:15.698Z,99677.69
2018-06-16T17:08:44.421Z,99669.82
2018-06-16T17:11:13.379Z,99676.73
2018-06-16T17:13:42.160Z,99665.81
2018-06-16T17:16:10.889Z,99659.75
2018-06-16T17:18:39.494Z,99662.02
2018-06-16T17:21:08.154Z,99659.17
2018-06-16T17:23:36.820Z,99658.16
2018-06-16T17:26:05.505Z,99657.62
2018-06-16T17:28:34.191Z,99662.44
2018-06-16T17:31:02.785Z,99666.31
2018-06-16T17:33:31.308Z,99668.25
2018-06-16T17:36:00.096Z,99672.87
2018-06-16T17:38:28.683Z,99662.85
2018-06-16T17:40:57.422Z,99659.67
2018-06-16T17:43:26.294Z,99656.03
2018-06-16T17:45:55.083Z,99652.65
2018-06-16T17:48:24.136Z,99654.86
2018-06-16T17:50:52.982Z,99654.12
2018-06-16T17:53:21.720Z,99648.39
2018-06-16T17:55:50.392Z,99646.78
2018-06-16T17:58:19.081Z,99646.04
2018-06-16T18:00:47.546Z,99649.66
2018-06-16T18:03:16.305Z,99651.13
2018-06-16T18:05:44.988Z,99652.93
2018-06-16T18:08:13.683Z,99651.96
2018-06-16T18:10:42.196Z,99651.50
2018-06-16T18:13:10.770Z,99651.50
2018-06-16T18:15:39.338Z,99656.95
2018-06-16T18:18:07.882Z,99650.48
2018-06-16T18:20:36.344Z,99652.14
2018-06-16T18:23:04.843Z,99651.70
2018-06-16T18:25:33.373Z,99657.47
2018-06-16T18:28:01.991Z,99659.63
2018-06-16T18:30:30.880Z,99660.42
2018-06-16T18:32:59.673Z,99674.59
2018-06-16T18:35:28.313Z,99680.66
2018-06-16T18:37:56.917Z,99683.38
2018-06-16T18:40:25.437Z,99681.30
2018-06-16T18:42:53.891Z,99681.23
2018-06-16T18:45:23.255Z,99683.81
2018-06-16T18:47:51.913Z,99692.28
2018-06-16T18:50:20.473Z,99708.58
2018-06-16T18:52:49.030Z,99712.42
2018-06-16T18:55:17.593Z,99722.84
2018-06-16T18:57:46.065Z,99731.09
2018-06-16T19:00:14.885Z,99745.06
2018-06-16T19:02:43.688Z,99741.64
2018-06-16T19:05:12.328Z,99735.55
2018-06-16T19:07:40.953Z,99736.13
2018-06-16T19:10:09.973Z,99728.40
2018-06-16T19:12:38.630Z,99724.19
2018-06-16T19:15:07.276Z,99723.52
2018-06-16T19:17:35.839Z,99724.39
2018-06-16T19:20:04.632Z,99723.22
2018-06-16T19:22:33.118Z,99720.08
2018-06-16T19:25:01.642Z,99721.23
2018-06-16T19:27:30.303Z,99721.80
2018-06-16T19:29:58.990Z,99729.33
2018-06-16T19:32:27.697Z,99722.64
2018-06-16T19:34:56.387Z,99720.16
2018-06-16T19:37:25.102Z,99721.20
2018-06-16T19:39:53.970Z,99725.28
2018-06-16T19:42:22.716Z,99732.08
2018-06-16T19:44:51.411Z,99735.02
2018-06-16T19:47:20.031Z,99735.64
2018-06-16T19:49:48.781Z,99743.73
2018-06-16T19:52:17.470Z,99734.66
2018-06-16T19:54:46.116Z,99735.31
2018-06-16T19:57:14.814Z,99737.30
2018-06-16T19:59:43.533Z,99738.75
2018-06-16T20:02:12.189Z,99731.97
2018-06-16T20:04:40.920Z,99741.66
2018-06-16T20:07:09.637Z,99752.59
2018-06-16T20:09:38.317Z,99756.86
2018-06-16T20:12:07.012Z,99760.56
2018-06-16T20:14:35.715Z,99766.00
2018-06-16T20:17:04.454Z,99767.88
2018-06-16T20:19:33.350Z,99765.47
2018-06-16T20:22:02.034Z,99776.97
2018-06-16T20:24:30.822Z,99778.56
2018-06-16T20:26:59.536Z,99776.65
2018-06-16T20:29:28.498Z,99781.86
2018-06-16T20:31:57.188Z,99786.16
2018-06-16T20:34:25.944Z,99788.69
2018-06-16T20:36:54.652Z,99788.25
2018-06-16T20:39:23.263Z,99781.14
2018-06-16T20:41:52.111Z,99784.23
2018-06-16T20:44:20.813Z,99788.17
2018-06-16T20:46:49.450Z,99788.42
2018-06-16T20:49:18.174Z,99786.95
2018-06-16T20:51:46.832Z,99792.03
2018-06-16T20:54:15.530Z,99790.49
2018-06-16T20:56:44.508Z,99788.25
2018-06-16T20:59:13.188Z,99794.59
2018-06-16T21:01:41.959Z,99793.81
2018-06-16T21:04:10.589Z,99788.59
2018-06-16T21:06:39.280Z,99796.69
2018-06-16T21:09:09.825Z,99790.10
2018-06-16T21:11:38.449Z,99794.09
2018-06-16T21:14:07.257Z,99796.83
2018-06-16T21:16:36.179Z,99799.98
2018-06-16T21:19:04.891Z,99801.31
2018-06-16T21:21:33.792Z,99797.70
2018-06-16T21:24:02.613Z,99802.95
2018-06-16T21:26:31.477Z,99798.02
2018-06-16T21:29:00.104Z,99798.47
2018-06-16T21:31:28.735Z,99794.09
2018-06-16T21:33:57.398Z,99797.24
2018-06-16T21:36:26.159Z,99794.09
2018-06-16T21:38:54.691Z,99801.91
2018-06-16T21:41:23.398Z,99806.11
2018-06-16T21:43:52.267Z,99799.84
2018-06-16T21:46:20.989Z,99801.17
2018-06-16T21:48:49.639Z,99805.56
2018-06-16T21:51:18.374Z,99803.91
2018-06-16T21:53:47.157Z,99799.98
2018-06-16T21:56:15.873Z,99807.23
2018-06-16T21:58:44.600Z,99804.42
2018-06-16T22:01:13.159Z,99808.76
2018-06-16T22:03:41.766Z,99805.08
2018-06-16T22:06:10.445Z,99812.45
2018-06-16T22:08:39.051Z,99813.92
2018-06-16T22:11:07.866Z,99811.10
2018-06-16T22:13:36.606Z,99810.95
2018-06-16T22:16:05.162Z,99804.14
2018-06-16T22:18:33.872Z,99812.36
2018-06-16T22:21:02.440Z,99811.64
2018-06-16T22:23:31.008Z,99813.69
2018-06-16T22:25:59.512Z,99813.92
2018-06-16T22:28:28.126Z,99812.27
2018-06-16T22:30:56.777Z,99814.05
2018-06-16T22:33:25.428Z,99814.14
2018-06-16T22:35:54.080Z,99816.38
2018-06-16T22:38:22.733Z,99817.71
2018-06-16T22:40:51.498Z,99819.05
2018-06-16T22:43:20.138Z,99815.05
2018-06-16T22:45:48.882Z,99814.60
2018-06-16T22:48:17.428Z,99809.28
2018-06-16T22:50:46.183Z,99808.50
2018-06-16T22:53:14.946Z,99813.43
2018-06-16T22:55:43.781Z,99813.27
2018-06-16T22:58:12.534Z,99807.33
2018-06-16T23:00:41.613Z,99804.89
2018-06-16T23:03:10.200Z,99812.65
2018-06-16T23:05:39.066Z,99817.35
2018-06-16T23:08:07.709Z,99813.84
2018-06-16T23:10:36.292Z,99813.84
2018-06-16T23:13:05.005Z,99811.71
2018-06-16T23:15:33.688Z,99817.97
2018-06-16T23:18:02.338Z,99813.27
2018-06-16T23:20:30.855Z,99807.33
2018-06-16T23:22:59.411Z,99815.05
2018-06-16T23:25:27.975Z,99817.09
2018-06-16T23:27:56.477Z,99818.66
2018-06-16T23:30:25.100Z,99823.77
2018-06-16T23:32:53.735Z,99824.32
2018-06-16T23:35:22.226Z,99826.17
2018-06-16T23:37:51.064Z,99830.16
2018-06-16T23:40:19.654Z,99828.14
2018-06-16T23:42:48.265Z,99826.48
2018-06-16T23:45:16.784Z,99826.48
2018-06-16T23:47:45.340Z,99825.70
2018-06-16T23:50:13.876Z,99823.05
2018-06-16T23:52:42.592Z,99822.23
2018-06-16T23:55:11.099Z,99833.17
2018-06-16T23:57:39.850Z,99836.45
